Time;durP1;ratioP1;P1;durP2;ratioP2;P2;SDS_P1;SDS_P2;PMS_P1;PMS_P2;Temp;Humidity;BMP_temperature;BMP_pressure;BME280_temperature;BME280_humidity;BME280_pressure;Samples;Min_cycle;Max_cycle;Signal;HPM_P1;HPM_P2
2022/08/20 00:02:15;;;;;;;;;12.80;12.20;;;;;33.55;29.19;98763.41;5032838;28;9030;-78
2022/08/20 00:04:44;;;;;;;;;13.80;11.80;;;;;33.79;28.52;98743.66;5049077;28;8901;-76
2022/08/20 00:07:14;;;;;;;;;9.00;8.00;;;;;33.88;28.61;98731.84;5048755;28;8828;-77
2022/08/20 00:09:44;;;;;;;;;14.00;13.60;;;;;34.01;28.64;98715.09;5072935;28;8869;-76
2022/08/20 00:12:17;;;;;;;;;13.20;11.80;;;;;34.05;28.63;98675.84;5055949;28;8848;-77
2022/08/20 00:14:47;;;;;;;;;13.40;12.60;;;;;33.88;29.26;98666.91;5071797;28;8947;-76
2022/08/20 00:17:15;;;;;;;;;16.20;12.80;;;;;33.61;29.37;98662.69;5070832;28;8845;-79
2022/08/20 00:19:44;;;;;;;;;13.40;11.80;;;;;33.65;29.79;98663.22;5075148;28;8875;-76
2022/08/20 00:22:12;;;;;;;;;14.00;12.20;;;;;33.55;30.02;98652.53;5073507;28;8928;-77
2022/08/20 00:24:41;;;;;;;;;12.60;11.60;;;;;33.44;29.61;98637.50;5090996;28;9503;-77
2022/08/20 00:27:10;;;;;;;;;15.60;13.60;;;;;33.08;30.29;98632.41;5091325;28;8963;-78
2022/08/20 00:29:38;;;;;;;;;12.20;10.80;;;;;33.03;30.59;98624.81;5089138;28;8861;-78
2022/08/20 00:32:08;;;;;;;;;14.00;12.40;;;;;32.93;30.94;98620.56;5090128;28;8856;-78
2022/08/20 00:34:37;;;;;;;;;14.80;13.00;;;;;32.88;30.52;98629.19;5091256;28;8886;-77
2022/08/20 00:37:06;;;;;;;;;12.20;11.20;;;;;32.73;31.11;98633.56;5073046;28;8848;-78
2022/08/20 00:39:35;;;;;;;;;15.20;13.00;;;;;32.67;30.84;98626.09;5090374;28;8864;-78
2022/08/20 00:42:04;;;;;;;;;12.80;11.80;;;;;32.59;31.04;98619.69;5090700;28;8859;-77
2022/08/20 00:44:33;;;;;;;;;12.60;11.60;;;;;32.61;30.78;98616.81;5090654;28;8836;-79
2022/08/20 00:47:03;;;;;;;;;11.20;10.80;;;;;32.48;30.64;98603.75;5124031;27;8940;-76
2022/08/20 00:49:33;;;;;;;;;14.20;14.20;;;;;32.34;30.74;98607.06;5103354;28;8830;-77
2022/08/20 00:52:07;;;;;;;;;11.40;11.40;;;;;32.41;30.78;98605.41;5103783;28;8875;-77
2022/08/20 00:54:40;;;;;;;;;14.60;11.60;;;;;32.43;30.44;98603.41;5071105;28;8850;-77
2022/08/20 00:57:13;;;;;;;;;10.80;8.00;;;;;32.33;30.90;98618.91;5070993;28;8854;-77
2022/08/20 00:59:43;;;;;;;;;12.80;11.00;;;;;32.50;30.24;98630.59;5071218;28;8862;-76
2022/08/20 01:02:16;;;;;;;;;10.80;10.80;;;;;32.48;30.22;98637.97;5075434;28;9009;-77
2022/08/20 01:04:49;;;;;;;;;11.00;10.00;;;;;32.37;30.08;98647.25;5046465;28;8873;-77
2022/08/20 01:07:19;;;;;;;;;10.40;9.20;;;;;32.56;29.77;98652.34;5052047;28;8853;-77
2022/08/20 01:09:48;;;;;;;;;12.80;10.00;;;;;32.78;29.58;98650.94;5035053;28;8845;-78
2022/08/20 01:12:28;;;;;;;;;11.00;11.00;;;;;32.87;29.43;98648.25;5051081;28;8826;-77
2022/08/20 01:15:00;;;;;;;;;12.60;10.20;;;;;32.99;29.29;98639.66;5034151;28;8985;-77
2022/08/20 01:17:35;;;;;;;;;13.20;12.80;;;;;33.09;29.07;98646.78;5051511;28;8861;-77
2022/08/20 01:20:10;;;;;;;;;13.00;12.40;;;;;33.19;29.24;98655.59;5051389;28;8852;-78
2022/08/20 01:25:47;;;;;;;;;9.20;9.00;;;;;33.18;28.80;98610.69;5074757;28;8860;-76
2022/08/20 01:28:20;;;;;;;;;14.00;12.40;;;;;32.92;29.35;98589.19;5068460;28;8968;-76
2022/08/20 01:30:49;;;;;;;;;12.40;12.20;;;;;32.97;29.20;98573.34;5067684;28;9015;-76
2022/08/20 01:33:19;;;;;;;;;9.60;9.00;;;;;32.71;29.65;98582.41;5051054;28;8871;-76
2022/08/20 01:35:48;;;;;;;;;13.60;13.00;;;;;32.72;29.67;98585.94;5022773;28;8858;-78
2022/08/20 01:38:17;;;;;;;;;13.80;10.60;;;;;32.72;29.55;98586.78;5068592;28;8862;-77
2022/08/20 01:41:03;;;;;;;;;7.80;7.80;;;;;32.91;29.14;98593.75;5069647;28;8850;-77
2022/08/20 01:43:32;;;;;;;;;12.20;10.00;;;;;32.85;29.05;98602.50;5084837;28;8915;-76
2022/08/20 01:46:04;;;;;;;;;9.60;9.20;;;;;32.99;29.19;98595.63;5069775;28;8889;-77
2022/08/20 01:48:33;;;;;;;;;14.00;12.60;;;;;33.12;28.87;98587.00;5070844;28;8858;-78
2022/08/20 01:51:06;;;;;;;;;11.60;9.80;;;;;33.22;28.79;98569.63;5082362;28;8843;-78
2022/08/20 01:53:37;;;;;;;;;15.20;11.40;;;;;33.27;29.12;98560.16;5089009;28;8927;-77
2022/08/20 01:56:10;;;;;;;;;13.20;12.60;;;;;33.33;29.05;98565.75;5072332;28;8976;-78
2022/08/20 01:58:42;;;;;;;;;13.00;12.00;;;;;33.37;29.29;98567.09;5054951;28;8969;-77
2022/08/20 02:01:20;;;;;;;;;12.80;11.00;;;;;33.51;28.78;98572.81;5090739;28;8859;-76
2022/08/20 02:03:49;;;;;;;;;16.20;11.60;;;;;33.35;29.02;98571.81;5090138;28;8832;-77
2022/08/20 02:06:18;;;;;;;;;9.00;9.00;;;;;33.32;28.93;98574.84;5088609;28;10131;-78
2022/08/20 02:08:46;;;;;;;;;11.60;11.00;;;;;33.33;28.75;98581.97;5089932;28;8844;-79
2022/08/20 02:11:17;;;;;;;;;11.20;10.20;;;;;33.30;28.79;98584.16;5091204;28;8840;-77
2022/08/20 02:13:51;;;;;;;;;14.60;13.40;;;;;32.78;29.84;98588.84;5088383;28;8859;-77
2022/08/20 02:16:22;;;;;;;;;11.80;11.80;;;;;31.60;31.99;98593.19;5071051;28;8866;-76
2022/08/20 02:18:57;;;;;;;;;16.20;13.60;;;;;30.79;33.56;98583.38;5037691;28;8851;-76
2022/08/20 02:21:31;;;;;;;;;13.40;12.80;;;;;30.24;34.94;98581.59;5088368;28;8883;-77
2022/08/20 02:24:00;;;;;;;;;14.40;14.00;;;;;30.14;34.88;98578.97;5089149;28;8843;-78
2022/08/20 02:26:30;;;;;;;;;14.80;10.60;;;;;30.75;33.80;98582.00;5087434;28;8871;-79
2022/08/20 02:28:59;;;;;;;;;14.80;12.00;;;;;30.86;33.29;98597.94;5070732;28;8972;-78
2022/08/20 02:31:28;;;;;;;;;10.80;7.80;;;;;30.68;33.85;98587.16;5088032;28;8851;-77
2022/08/20 02:34:02;;;;;;;;;13.80;11.80;;;;;30.33;34.23;98583.44;5088748;28;8838;-79
2022/08/20 02:36:51;;;;;;;;;13.80;12.80;;;;;30.48;33.53;98592.66;5088759;28;8848;-78
2022/08/20 02:39:20;;;;;;;;;13.80;12.80;;;;;30.13;34.49;98604.16;5069782;28;8840;-76
2022/08/20 02:41:50;;;;;;;;;13.00;11.80;;;;;30.39;34.27;98604.34;5087435;28;8875;-78
2022/08/20 02:44:19;;;;;;;;;18.00;15.20;;;;;30.49;34.40;98618.59;5086025;28;8855;-77
2022/08/20 02:46:49;;;;;;;;;14.80;14.20;;;;;30.41;34.95;98625.72;5070834;28;10016;-79
2022/08/20 02:49:18;;;;;;;;;14.60;13.40;;;;;30.09;35.79;98635.88;5089063;28;8863;-78
2022/08/20 02:51:47;;;;;;;;;14.40;14.00;;;;;30.16;35.52;98638.81;5070970;28;8936;-77
2022/08/20 02:54:16;;;;;;;;;13.00;12.00;;;;;30.65;34.88;98649.38;5087723;28;8851;-78
2022/08/20 02:56:45;;;;;;;;;14.60;12.60;;;;;30.83;34.95;98649.38;5089296;28;8856;-77
2022/08/20 02:59:15;;;;;;;;;15.60;12.60;;;;;31.05;35.01;98646.28;5087492;28;8844;-77
2022/08/20 03:01:48;;;;;;;;;16.60;14.20;;;;;30.54;36.78;98647.72;5036363;28;8859;-78
2022/08/20 03:04:28;;;;;;;;;18.80;16.20;;;;;30.11;38.64;98638.41;5088683;28;8884;-78
2022/08/20 03:06:58;;;;;;;;;19.00;18.00;;;;;29.65;40.04;98627.50;5088187;28;8840;-76
2022/08/20 03:09:26;;;;;;;;;18.00;16.00;;;;;29.00;41.67;98621.91;5035332;28;8938;-79
2022/08/20 03:11:55;;;;;;;;;16.80;16.40;;;;;28.55;43.19;98625.94;5087910;28;8944;-78
2022/08/20 03:14:25;;;;;;;;;18.00;16.60;;;;;28.57;43.51;98631.16;5086419;28;8878;-78
2022/08/20 03:16:54;;;;;;;;;23.80;19.80;;;;;28.64;43.72;98632.31;5087041;28;8902;-77
2022/08/20 03:19:22;;;;;;;;;18.00;14.60;;;;;28.60;44.16;98632.72;5087986;28;8929;-79
2022/08/20 03:21:52;;;;;;;;;21.25;20.75;;;;;29.11;42.67;98627.13;5088621;28;9659;-78
2022/08/20 03:24:20;;;;;;;;;19.75;19.00;;;;;29.47;42.16;98630.09;5102527;28;8847;-78
2022/08/20 03:26:49;;;;;;;;;18.00;16.20;;;;;29.72;41.29;98625.09;5086628;28;8868;-77
2022/08/20 03:29:18;;;;;;;;;22.00;20.40;;;;;29.87;41.38;98633.56;5088882;28;8843;-78
2022/08/20 03:31:48;;;;;;;;;21.40;18.80;;;;;30.30;40.13;98635.66;5090829;28;8848;-78
2022/08/20 03:34:16;;;;;;;;;19.20;18.60;;;;;30.43;39.76;98629.94;5089943;28;8870;-79
2022/08/20 03:36:45;;;;;;;;;20.00;19.00;;;;;30.71;39.36;98624.53;5091311;28;8844;-78
2022/08/20 03:39:14;;;;;;;;;18.00;18.00;;;;;30.96;38.85;98631.03;5091040;28;8869;-77
2022/08/20 03:41:42;;;;;;;;;19.20;19.20;;;;;31.16;38.49;98636.28;5108079;28;8870;-78
2022/08/20 03:44:11;;;;;;;;;19.60;16.80;;;;;31.29;37.98;98648.34;5092729;28;8840;-78
2022/08/20 03:46:39;;;;;;;;;21.80;18.80;;;;;31.46;37.79;98646.66;5074271;28;9585;-77
2022/08/20 03:49:10;;;;;;;;;19.40;19.00;;;;;31.60;37.25;98642.53;5091224;28;8865;-77
2022/08/20 03:51:38;;;;;;;;;20.20;18.60;;;;;31.64;36.86;98651.16;5095505;28;8953;-79
2022/08/20 03:54:25;;;;;;;;;20.00;20.00;;;;;31.80;36.62;98669.31;5104685;28;8848;-78
2022/08/20 03:57:00;;;;;;;;;26.75;23.50;;;;;31.89;36.70;98683.69;5093158;28;8852;-77
2022/08/20 03:59:31;;;;;;;;;18.40;16.60;;;;;32.02;36.60;98674.22;5092830;28;8859;-76
2022/08/20 04:02:00;;;;;;;;;19.60;18.80;;;;;32.07;36.30;98675.59;5092537;28;8990;-77
2022/08/20 04:04:30;;;;;;;;;21.25;18.75;;;;;31.87;36.96;98691.94;5094068;28;8832;-78
2022/08/20 04:06:59;;;;;;;;;19.00;18.25;;;;;31.77;37.12;98710.91;5093414;28;8874;-77
2022/08/20 04:09:28;;;;;;;;;37.75;31.75;;;;;31.67;37.27;98740.66;5074288;28;8928;-78
2022/08/20 04:11:59;;;;;;;;;23.00;20.25;;;;;31.73;37.69;98755.38;5091891;28;8851;-78
2022/08/20 04:14:27;;;;;;;;;21.75;20.50;;;;;31.33;38.63;98745.88;5091472;28;9632;-77
2022/08/20 04:16:57;;;;;;;;;25.75;24.25;;;;;29.30;44.62;98720.31;5090125;28;8878;-77
2022/08/20 04:19:26;;;;;;;;;26.75;25.50;;;;;27.70;53.73;98725.38;5091248;28;8890;-77
2022/08/20 04:22:03;;;;;;;;;24.25;23.75;;;;;28.10;57.76;98743.44;5072448;28;8987;-78
2022/08/20 04:24:32;;;;;;;;;24.25;24.25;;;;;28.07;54.73;98757.09;5090107;28;8885;-77
2022/08/20 04:27:02;;;;;;;;;22.75;21.75;;;;;28.34;56.75;98776.16;5089684;28;8843;-78
2022/08/20 04:29:32;;;;;;;;;27.00;26.50;;;;;28.29;53.34;98775.69;5090924;28;8843;-77
2022/08/20 04:32:03;;;;;;;;;27.50;26.75;;;;;27.38;57.06;98772.59;5089929;28;8855;-78
2022/08/20 04:34:34;;;;;;;;;26.00;23.25;;;;;27.28;59.00;98730.63;5090458;28;8851;-78
2022/08/20 04:37:05;;;;;;;;;27.75;26.75;;;;;27.06;58.36;98656.63;5088822;28;8971;-78
2022/08/20 04:40:52;;;;;;;;;21.25;20.00;;;;;27.07;58.48;98612.81;5072161;28;8848;-77
2022/08/20 04:42:34;;;;;;;;;25.00;23.25;;;;;27.10;57.37;98567.91;5090730;28;8840;-79
2022/08/20 04:45:07;;;;;;;;;28.40;21.20;;;;;27.11;57.22;98523.25;5090126;28;8969;-77
2022/08/20 04:47:35;;;;;;;;;19.20;17.80;;;;;27.18;56.31;98495.84;5090217;28;8889;-79
2022/08/20 04:50:08;;;;;;;;;18.60;16.00;;;;;26.90;54.95;98485.78;5128282;27;8861;-77
2022/08/20 04:52:39;;;;;;;;;18.20;16.40;;;;;26.84;54.77;98477.31;5111079;27;8864;-79
2022/08/20 04:55:10;;;;;;;;;17.60;16.00;;;;;26.86;54.85;98497.72;5095007;28;8849;-78
2022/08/20 04:57:38;;;;;;;;;20.00;18.80;;;;;26.84;55.17;98517.44;5070840;28;8882;-77
2022/08/20 05:00:11;;;;;;;;;24.80;21.80;;;;;26.88;56.58;98554.63;5088559;27;8862;-76
2022/08/20 05:02:40;;;;;;;;;16.60;16.00;;;;;27.02;55.69;98573.06;5128792;27;9003;-77
2022/08/20 05:05:10;;;;;;;;;23.40;22.20;;;;;26.18;59.06;98595.03;5111559;27;8888;-78
2022/08/20 05:07:43;;;;;;;;;20.80;20.60;;;;;26.97;57.17;98626.09;5128929;27;8869;-79
2022/08/20 05:10:15;;;;;;;;;21.80;20.20;;;;;26.84;57.19;98647.66;5103324;28;9579;-78
2022/08/20 05:12:44;;;;;;;;;21.20;19.20;;;;;27.18;56.38;98672.50;5087576;28;8861;-77
2022/08/20 05:15:25;;;;;;;;;25.00;22.00;;;;;27.36;56.75;98666.63;5086798;28;8876;-77
2022/08/20 05:17:56;;;;;;;;;23.50;22.50;;;;;27.27;56.38;98651.31;5087307;28;9047;-78
2022/08/20 05:20:30;;;;;;;;;24.00;21.75;;;;;27.34;56.33;98671.25;5102777;28;8855;-78
2022/08/20 05:23:01;;;;;;;;;28.00;25.00;;;;;27.76;56.60;98680.13;5055968;28;8986;-78
2022/08/20 05:25:31;;;;;;;;;23.20;21.80;;;;;28.04;55.44;98672.44;5089823;28;8925;-77
2022/08/20 05:28:00;;;;;;;;;21.20;20.80;;;;;28.18;54.97;98680.09;5088465;28;8871;-77
2022/08/20 05:30:32;;;;;;;;;30.25;26.25;;;;;28.07;54.37;98682.91;5088490;28;8863;-77
2022/08/20 05:33:03;;;;;;;;;26.20;24.80;;;;;28.39;54.63;98688.13;5088610;28;8940;-79
2022/08/20 05:35:33;;;;;;;;;19.75;19.75;;;;;28.22;53.14;98709.34;5089682;28;8880;-80
2022/08/20 05:38:03;;;;;;;;;23.20;20.00;;;;;28.44;52.01;98705.63;5089398;28;8860;-78
2022/08/20 05:40:32;;;;;;;;;20.20;18.40;;;;;28.47;52.04;98706.22;5088850;28;8874;-76
2022/08/20 05:43:03;;;;;;;;;21.80;21.60;;;;;27.92;52.09;98706.50;5088910;28;8840;-76
2022/08/20 05:45:33;;;;;;;;;23.40;20.80;;;;;27.34;54.53;98695.34;5088350;28;8824;-77
2022/08/20 05:48:04;;;;;;;;;18.60;17.60;;;;;27.93;53.06;98710.88;5089087;28;8844;-78
2022/08/20 05:50:33;;;;;;;;;22.20;18.40;;;;;28.08;52.99;98718.59;5087819;28;8852;-79
2022/08/20 05:53:03;;;;;;;;;25.75;22.00;;;;;28.42;52.50;98726.38;5088565;28;8881;-79
2022/08/20 05:55:32;;;;;;;;;24.20;21.20;;;;;28.71;53.31;98731.88;5087834;28;8953;-79
2022/08/20 05:58:03;;;;;;;;;22.60;22.60;;;;;28.97;53.18;98746.50;5088199;28;8960;-77
2022/08/20 06:00:33;;;;;;;;;24.60;22.40;;;;;29.14;52.50;98757.59;5088015;28;8863;-79
2022/08/20 06:05:48;;;;;;;;;29.50;26.50;;;;;27.91;59.25;98761.06;5088170;28;8908;-76
2022/08/20 06:08:18;;;;;;;;;29.75;28.00;;;;;27.83;63.56;98751.94;5088973;28;8964;-79
2022/08/20 06:10:47;;;;;;;;;27.25;24.25;;;;;27.92;64.34;98753.88;5088662;28;8851;-77
2022/08/20 06:13:15;;;;;;;;;26.80;25.60;;;;;27.95;64.39;98765.19;5087023;28;8936;-77
2022/08/20 06:15:44;;;;;;;;;36.00;31.50;;;;;27.77;64.21;98761.38;5087675;28;8885;-78
2022/08/20 06:18:14;;;;;;;;;29.25;28.25;;;;;27.86;65.18;98782.00;5087843;28;9642;-77
2022/08/20 06:20:56;;;;;;;;;29.00;29.00;;;;;28.06;65.53;98796.44;5079982;28;8886;-78
2022/08/20 06:23:26;;;;;;;;;33.75;31.50;;;;;28.12;65.79;98819.19;5078546;28;9636;-77
2022/08/20 06:26:15;;;;;;;;;36.75;31.25;;;;;28.21;66.14;98849.75;5088595;28;8937;-77
2022/08/20 06:28:54;;;;;;;;;38.00;32.25;;;;;28.19;65.15;98864.13;5088121;28;8882;-77
2022/08/20 06:31:23;;;;;;;;;36.75;31.75;;;;;28.29;65.58;98874.06;5104820;28;8840;-77
2022/08/20 06:33:52;;;;;;;;;32.75;31.00;;;;;28.21;64.47;98872.06;5048396;28;8872;-77
2022/08/20 06:36:20;;;;;;;;;39.00;33.25;;;;;28.36;65.26;98878.78;5032598;28;8933;-77
2022/08/20 06:38:51;;;;;;;;;35.00;31.00;;;;;28.40;64.19;98882.06;5045666;28;8866;-77
2022/08/20 06:41:19;;;;;;;;;36.25;34.25;;;;;28.41;64.53;98872.19;5028612;28;8858;-77
2022/08/20 06:43:47;;;;;;;;;27.75;25.50;;;;;28.30;63.47;98879.31;5045857;28;9012;-76
2022/08/20 06:46:17;;;;;;;;;32.00;31.50;;;;;28.31;63.76;98894.41;5029011;28;8854;-77
2022/08/20 06:48:45;;;;;;;;;34.00;32.00;;;;;28.34;64.54;98899.53;5027984;28;8989;-78
2022/08/20 06:51:13;;;;;;;;;34.50;32.00;;;;;28.32;63.89;98876.50;5028166;28;8869;-78
2022/08/20 06:53:42;;;;;;;;;35.25;32.00;;;;;26.95;62.18;98823.41;5028397;28;8897;-77
2022/08/20 06:56:12;;;;;;;;;34.25;32.00;;;;;27.31;64.79;98789.31;5045263;28;9000;-77
2022/08/20 06:58:42;;;;;;;;;33.75;31.00;;;;;27.52;64.46;98767.94;5045204;28;8922;-80
2022/08/20 07:01:12;;;;;;;;;38.25;33.25;;;;;27.63;64.55;98754.50;5029058;28;8908;-77
2022/08/20 07:03:42;;;;;;;;;33.25;31.50;;;;;27.54;63.09;98750.78;5027674;28;8839;-78
2022/08/20 07:06:24;;;;;;;;;36.75;33.25;;;;;27.55;63.52;98765.00;5084417;28;8838;-78
2022/08/20 07:08:54;;;;;;;;;35.00;32.75;;;;;27.70;63.61;98776.28;5068632;28;8911;-77
2022/08/20 07:11:24;;;;;;;;;35.75;33.25;;;;;26.98;63.85;98791.88;5085354;28;8900;-75
2022/08/20 07:13:56;;;;;;;;;39.25;35.25;;;;;27.13;64.69;98805.88;5085385;28;8853;-79
2022/08/20 07:16:26;;;;;;;;;37.00;33.50;;;;;27.11;63.69;98791.75;5051373;28;8850;-77
2022/08/20 07:18:54;;;;;;;;;34.50;32.75;;;;;26.26;65.03;98811.78;5069000;28;8897;-78
2022/08/20 07:21:24;;;;;;;;;40.00;35.50;;;;;25.40;70.68;98809.34;5087571;28;8997;-78
2022/08/20 07:23:53;;;;;;;;;35.25;32.75;;;;;25.27;72.23;98769.38;5088510;28;8856;-78
2022/08/20 07:26:23;;;;;;;;;37.50;32.75;;;;;25.68;71.13;98736.06;5088888;28;8876;-78
2022/08/20 07:28:53;;;;;;;;;40.50;34.75;;;;;25.72;70.75;98753.53;5088562;28;8856;-78
2022/08/20 07:34:10;;;;;;;;;35.25;33.00;;;;;24.87;74.30;98796.25;5070483;28;8940;-77
2022/08/20 07:36:39;;;;;;;;;40.00;35.25;;;;;25.50;73.28;98789.03;5069030;28;8840;-78
2022/08/20 07:39:08;;;;;;;;;40.25;35.00;;;;;25.79;71.68;98769.97;5087748;28;8860;-78
2022/08/20 07:41:38;;;;;;;;;36.50;33.25;;;;;25.96;70.58;98769.56;5086383;28;8820;-77
2022/08/20 07:44:06;;;;;;;;;41.75;35.00;;;;;25.93;69.95;98769.78;5086540;28;8846;-75
2022/08/20 07:46:35;;;;;;;;;47.00;37.75;;;;;25.18;73.61;98759.31;5088444;28;8863;-77
2022/08/20 07:49:08;;;;;;;;;43.75;36.75;;;;;25.46;73.04;98774.19;5070087;28;8867;-77
2022/08/20 07:51:37;;;;;;;;;42.50;36.00;;;;;25.25;73.56;98805.97;5088011;28;8996;-78
2022/08/20 07:54:06;;;;;;;;;42.25;35.50;;;;;24.96;75.15;98826.75;5085642;28;8824;-79
2022/08/20 07:56:34;;;;;;;;;42.25;36.50;;;;;25.35;73.71;98847.06;5086377;28;8974;-78
2022/08/20 07:59:05;;;;;;;;;45.00;36.25;;;;;25.58;72.73;98844.53;5087285;28;8868;-78
2022/08/20 08:01:34;;;;;;;;;49.50;39.75;;;;;25.32;73.89;98843.78;5069521;28;8913;-77
2022/08/20 08:04:03;;;;;;;;;44.50;38.25;;;;;25.52;73.26;98852.97;5069139;28;9696;-77
2022/08/20 08:06:32;;;;;;;;;45.50;38.75;;;;;25.38;73.72;98856.66;5085677;28;8852;-77
2022/08/20 08:09:04;;;;;;;;;39.75;35.50;;;;;25.94;71.99;98848.97;5066946;28;9591;-77
2022/08/20 08:11:36;;;;;;;;;44.50;38.25;;;;;25.70;71.78;98866.81;5084739;28;8838;-80
2022/08/20 08:14:09;;;;;;;;;42.25;36.00;;;;;25.70;72.58;98874.81;5068552;28;8918;-79
2022/08/20 08:16:38;;;;;;;;;45.25;39.00;;;;;25.17;73.30;98889.25;5071342;28;8837;-76
2022/08/20 08:19:13;;;;;;;;;42.25;35.75;;;;;25.19;72.16;98876.63;5088079;28;8845;-78
2022/08/20 08:21:43;;;;;;;;;45.00;38.00;;;;;25.64;72.42;98887.66;5087853;28;8830;-76
2022/08/20 08:24:12;;;;;;;;;45.50;39.25;;;;;26.13;70.31;98880.50;5038509;28;8853;-79
2022/08/20 08:26:48;;;;;;;;;45.50;39.00;;;;;25.95;69.78;98872.03;5056285;28;8868;-77
2022/08/20 08:29:19;;;;;;;;;40.50;35.75;;;;;25.30;72.29;98881.25;5027730;28;9087;-76
2022/08/20 08:31:47;;;;;;;;;42.50;36.00;;;;;25.71;71.75;98885.38;5027935;28;8838;-77
2022/08/20 08:34:16;;;;;;;;;44.25;35.75;;;;;25.70;71.23;98883.66;5011449;28;8849;-78
2022/08/20 08:36:44;;;;;;;;;43.00;35.75;;;;;25.66;71.65;98883.03;5028111;28;8854;-78
2022/08/20 08:39:13;;;;;;;;;39.50;35.50;;;;;25.59;71.60;98891.63;5027548;28;8942;-77
2022/08/20 08:41:46;;;;;;;;;41.50;35.50;;;;;25.29;71.71;98891.06;5028387;28;8866;-77
2022/08/20 08:44:23;;;;;;;;;46.75;38.00;;;;;25.48;72.43;98879.91;5047483;28;8869;-77
2022/08/20 08:46:56;;;;;;;;;44.25;37.75;;;;;26.33;70.95;98862.09;5047853;28;8881;-78
2022/08/20 08:49:30;;;;;;;;;46.00;38.00;;;;;26.85;68.83;98855.38;5047774;28;8882;-76
2022/08/20 08:52:10;;;;;;;;;47.00;37.75;;;;;27.23;67.30;98848.78;5048740;28;8861;-77
2022/08/20 08:54:42;;;;;;;;;40.50;35.00;;;;;27.48;66.73;98845.00;5032341;28;8846;-78
2022/08/20 08:57:11;;;;;;;;;39.25;36.00;;;;;27.73;65.61;98826.91;5037639;28;8838;-76
2022/08/20 08:59:41;;;;;;;;;39.00;35.50;;;;;27.85;64.36;98812.50;5057530;28;8922;-78
2022/08/20 09:02:31;;;;;;;;;41.25;35.50;;;;;28.09;64.16;98820.31;5092664;28;8862;-77
2022/08/20 09:05:04;;;;;;;;;41.25;34.25;;;;;28.29;63.46;98840.06;5078035;28;8974;-78
2022/08/20 09:07:34;;;;;;;;;38.50;34.50;;;;;28.32;62.31;98858.59;5097787;28;8878;-79
2022/08/20 09:10:04;;;;;;;;;39.50;36.00;;;;;27.47;63.00;98866.53;5090978;28;8940;-78
2022/08/20 09:12:33;;;;;;;;;47.00;37.50;;;;;26.58;67.65;98856.56;5051409;28;10058;-80
2022/08/20 09:15:03;;;;;;;;;36.75;33.50;;;;;26.60;67.47;98864.50;5067402;28;8851;-77
2022/08/20 09:17:32;;;;;;;;;40.50;35.00;;;;;27.39;66.91;98867.16;5018582;28;8860;-76
2022/08/20 09:20:01;;;;;;;;;43.00;37.50;;;;;27.09;65.79;98852.59;5052554;28;8864;-80
2022/08/20 09:22:32;;;;;;;;;48.00;40.25;;;;;25.92;71.28;98840.22;5071254;28;8868;-76
2022/08/20 09:25:02;;;;;;;;;48.50;39.00;;;;;25.68;73.89;98825.03;5051186;28;8840;-77
2022/08/20 09:27:30;;;;;;;;;40.00;33.25;;;;;26.04;71.86;98814.38;5049976;28;8844;-81
2022/08/20 09:29:59;;;;;;;;;45.25;37.25;;;;;26.48;70.65;98802.06;5050435;28;8880;-80
2022/08/20 09:32:29;;;;;;;;;48.75;39.75;;;;;26.75;68.68;98828.50;5001193;28;9950;-77
2022/08/20 09:34:59;;;;;;;;;46.00;38.50;;;;;27.06;67.35;98851.97;5066367;28;8860;-79
2022/08/20 09:37:31;;;;;;;;;43.25;36.75;;;;;27.31;66.99;98878.50;5049833;28;8891;-79
2022/08/20 09:40:07;;;;;;;;;45.50;38.50;;;;;27.53;66.60;98915.13;5067180;28;8870;-81
2022/08/20 09:42:37;;;;;;;;;46.25;38.00;;;;;27.76;65.74;98923.94;5068745;28;8886;-79
2022/08/20 09:45:10;;;;;;;;;47.50;39.50;;;;;26.82;66.89;98909.13;5056212;28;8855;-77
2022/08/20 09:47:41;;;;;;;;;48.25;40.50;;;;;26.36;68.92;98885.91;5088877;28;8851;-79
2022/08/20 09:50:26;;;;;;;;;45.25;36.50;;;;;26.52;69.19;98865.06;5089116;28;8860;-80
2022/08/20 09:52:57;;;;;;;;;44.00;37.25;;;;;26.93;68.54;98846.75;5089701;28;8894;-76
2022/08/20 09:55:33;;;;;;;;;41.75;35.50;;;;;27.36;68.02;98836.16;5088116;28;9589;-77
2022/08/20 09:58:06;;;;;;;;;46.25;37.75;;;;;27.51;66.83;98825.16;5087712;28;8867;-77
2022/08/20 10:00:34;;;;;;;;;44.25;37.00;;;;;27.71;66.10;98815.47;5089323;28;8864;-78
2022/08/20 10:03:05;;;;;;;;;39.25;35.75;;;;;27.88;64.88;98819.41;5087821;28;8844;-77
2022/08/20 10:05:33;;;;;;;;;46.25;38.75;;;;;27.96;64.30;98820.50;5089301;28;8847;-77
2022/08/20 10:08:05;;;;;;;;;44.50;39.00;;;;;28.02;63.52;98818.31;5088489;28;8827;-78
2022/08/20 10:10:34;;;;;;;;;31.50;29.50;;;;;28.01;63.62;98812.06;5070689;28;8952;-79
2022/08/20 10:13:02;;;;;;;;;44.67;38.00;;;;;27.97;62.99;98811.47;5053522;28;9699;-80
2022/08/20 10:15:31;;;;;;;;;43.50;37.25;;;;;28.23;63.21;98812.94;5087506;28;8840;-77
2022/08/20 10:18:04;;;;;;;;;44.00;37.25;;;;;28.15;62.18;98830.53;5088932;28;8851;-78
2022/08/20 10:20:35;;;;;;;;;44.50;39.00;;;;;28.47;62.58;98844.81;5088989;28;8873;-78
2022/08/20 10:23:04;;;;;;;;;37.00;34.25;;;;;28.50;60.49;98866.88;5068878;28;8909;-78
2022/08/20 10:25:33;;;;;;;;;41.00;35.25;;;;;28.54;62.14;98913.09;5087195;28;8909;-78
2022/08/20 10:28:02;;;;;;;;;44.00;36.50;;;;;28.71;61.96;98931.28;5088088;28;8970;-79
2022/08/20 10:30:31;;;;;;;;;44.75;35.75;;;;;28.87;62.07;98933.50;5069168;28;8855;-77
2022/08/20 10:32:59;;;;;;;;;41.75;36.75;;;;;28.76;62.40;98953.22;5069840;28;8944;-78
2022/08/20 10:35:28;;;;;;;;;39.75;35.00;;;;;28.88;62.52;98970.09;5086528;28;8971;-79
2022/08/20 10:37:58;;;;;;;;;40.00;35.25;;;;;28.74;61.21;98987.38;5085499;28;8860;-78
2022/08/20 10:40:27;;;;;;;;;41.75;35.25;;;;;28.51;62.31;98980.41;5085827;28;9585;-78
2022/08/20 10:42:55;;;;;;;;;39.75;34.50;;;;;28.57;62.51;98971.88;5086970;28;8835;-80
2022/08/20 10:45:25;;;;;;;;;43.00;37.00;;;;;28.81;62.16;98962.69;5070101;28;8860;-80
2022/08/20 10:47:53;;;;;;;;;39.50;35.00;;;;;29.15;61.75;98964.22;5070426;28;8894;-78
2022/08/20 10:50:22;;;;;;;;;36.00;33.50;;;;;29.24;60.62;98959.84;5088144;28;8943;-78
2022/08/20 10:52:50;;;;;;;;;38.00;33.25;;;;;28.95;58.86;98920.25;5086796;28;8844;-77
2022/08/20 10:55:21;;;;;;;;;40.00;35.00;;;;;28.13;60.06;98891.47;5102657;28;8920;-79
2022/08/20 10:57:50;;;;;;;;;37.75;34.50;;;;;28.13;61.08;98888.78;5086639;28;8967;-79
2022/08/20 11:00:19;;;;;;;;;39.00;35.75;;;;;27.89;61.49;98891.69;5069953;28;8884;-78
2022/08/20 11:02:48;;;;;;;;;40.50;36.50;;;;;28.16;61.48;98901.06;5088233;28;8855;-80
2022/08/20 11:05:17;;;;;;;;;40.50;35.25;;;;;28.56;61.72;98892.34;5088180;28;8844;-80
2022/08/20 11:07:45;;;;;;;;;25.00;24.25;;;;;28.48;60.09;98868.00;5070870;28;9022;-79
2022/08/20 11:10:32;;;;;;;;;40.50;36.25;;;;;28.55;60.47;98840.53;5068588;28;8908;-80
2022/08/20 11:13:01;;;;;;;;;37.50;33.75;;;;;28.78;60.73;98841.22;5065430;28;8866;-81
2022/08/20 11:15:32;;;;;;;;;37.50;33.50;;;;;29.02;60.28;98853.47;5068836;28;8837;-77
2022/08/20 11:18:00;;;;;;;;;44.00;36.50;;;;;29.08;59.69;98822.56;5090269;28;8870;-77
2022/08/20 11:20:30;;;;;;;;;32.00;29.25;;;;;29.20;59.33;98817.94;5093370;28;8850;-79
2022/08/20 11:23:00;;;;;;;;;37.00;33.50;;;;;29.45;59.87;98800.44;5095357;28;8850;-79
2022/08/20 11:25:31;;;;;;;;;35.25;33.25;;;;;29.65;59.71;98777.97;5068832;28;8896;-78
2022/08/20 11:28:00;;;;;;;;;36.00;33.00;;;;;29.51;58.65;98744.34;5051548;28;9591;-79
2022/08/20 11:30:33;;;;;;;;;38.75;34.25;;;;;29.06;58.75;98730.56;5050635;28;8845;-79
2022/08/20 11:33:02;;;;;;;;;41.75;34.75;;;;;28.83;59.43;98732.59;5085101;28;8961;-78
2022/08/20 11:35:34;;;;;;;;;36.50;30.75;;;;;28.96;59.31;98717.09;5085940;28;8849;-77
2022/08/20 11:38:16;;;;;;;;;37.25;34.00;;;;;28.90;58.36;98704.22;5068598;28;8849;-77
2022/08/20 11:40:46;;;;;;;;;41.75;35.50;;;;;29.06;57.88;98704.56;5085137;28;9069;-80
2022/08/20 11:43:15;;;;;;;;;39.00;34.50;;;;;29.23;59.03;98715.63;5103190;28;8890;-81
2022/08/20 11:45:47;;;;;;;;;40.50;35.25;;;;;29.38;58.19;98737.53;5087117;28;8902;-79
2022/08/20 11:48:16;;;;;;;;;43.50;36.25;;;;;29.45;57.59;98749.41;5087511;28;8983;-78
2022/08/20 11:50:46;;;;;;;;;46.50;38.75;;;;;29.03;58.29;98761.19;5073792;28;8891;-79
2022/08/20 11:53:14;;;;;;;;;44.75;35.50;;;;;28.69;59.16;98771.41;5091083;28;8885;-77